createdAt,value
2023-04-15T00:02:20.534Z,6.78
2023-04-15T00:04:49.099Z,7.40
2023-04-15T00:07:17.933Z,7.63
2023-04-15T00:09:46.564Z,9.18
2023-04-15T00:12:14.833Z,7.35
2023-04-15T00:14:42.741Z,10.27
2023-04-15T00:17:11.846Z,9.95
2023-04-15T00:19:40.771Z,8.52
2023-04-15T00:22:09.223Z,12.18
2023-04-15T00:24:37.539Z,9.07
2023-04-15T00:27:05.416Z,11.90
2023-04-15T00:29:33.205Z,11.63
2023-04-15T00:32:01.298Z,10.57
2023-04-15T00:34:31.751Z,10.73
2023-04-15T00:36:59.722Z,11.57
2023-04-15T00:39:28.057Z,12.77
2023-04-15T00:41:57.363Z,10.77
2023-04-15T00:44:25.424Z,13.48
2023-04-15T00:46:55.092Z,10.23
2023-04-15T00:49:23.952Z,11.60
2023-04-15T00:51:53.571Z,10.07
2023-04-15T00:54:21.401Z,10.57
2023-04-15T00:56:49.160Z,12.95
2023-04-15T00:59:18.597Z,12.15
2023-04-15T01:01:46.998Z,14.38
2023-04-15T01:04:15.137Z,12.27
2023-04-15T01:06:42.864Z,13.10
2023-04-15T01:09:12.927Z,11.48
2023-04-15T01:11:41.228Z,10.65
2023-04-15T01:14:10.404Z,11.85
2023-04-15T01:16:39.737Z,13.98
2023-04-15T01:19:08.610Z,14.77
2023-04-15T01:21:37.503Z,13.23
2023-04-15T01:24:10.710Z,12.95
2023-04-15T01:26:41.015Z,10.82
2023-04-15T01:29:09.453Z,12.15
2023-04-15T01:31:37.564Z,12.07
2023-04-15T01:34:24.875Z,13.73
2023-04-15T01:37:13.529Z,14.07
2023-04-15T01:39:41.161Z,10.85
2023-04-15T01:42:10.178Z,12.68
2023-04-15T01:44:37.867Z,13.75
2023-04-15T01:47:05.606Z,11.77
2023-04-15T01:49:33.609Z,15.32
2023-04-15T01:52:01.810Z,11.15
2023-04-15T01:54:29.594Z,11.88
2023-04-15T01:56:57.851Z,12.52
2023-04-15T01:59:27.354Z,12.70
2023-04-15T02:01:56.117Z,10.25
2023-04-15T02:04:23.863Z,10.68
2023-04-15T02:06:51.737Z,13.95
2023-04-15T02:09:19.997Z,13.40
2023-04-15T02:11:47.948Z,13.50
2023-04-15T02:14:15.666Z,16.35
2023-04-15T02:16:44.725Z,15.27
2023-04-15T02:19:12.512Z,15.85
2023-04-15T02:21:40.222Z,13.55
2023-04-15T02:24:07.928Z,17.83
2023-04-15T02:26:36.152Z,15.52
2023-04-15T02:29:03.986Z,23.88
2023-04-15T02:31:34.028Z,20.00
2023-04-15T02:34:04.274Z,21.02
2023-04-15T02:36:33.256Z,19.30
2023-04-15T02:39:01.072Z,21.92
2023-04-15T02:41:30.585Z,21.90
2023-04-15T02:43:59.455Z,21.77
2023-04-15T02:46:27.438Z,23.95
2023-04-15T02:48:55.250Z,25.27
2023-04-15T02:51:26.453Z,26.58
2023-04-15T02:53:54.289Z,22.73
2023-04-15T02:56:23.290Z,28.42
2023-04-15T02:58:56.338Z,31.25
2023-04-15T03:01:26.074Z,30.73
2023-04-15T03:03:54.129Z,31.38
2023-04-15T03:06:21.823Z,33.70
2023-04-15T03:08:52.565Z,31.23
2023-04-15T03:11:21.333Z,36.28
2023-04-15T03:13:49.183Z,40.83
2023-04-15T03:16:29.575Z,42.55
2023-04-15T03:18:58.857Z,39.03
2023-04-15T03:21:26.900Z,41.65
2023-04-15T03:23:56.523Z,44.80
2023-04-15T03:26:27.989Z,41.65
2023-04-15T03:28:58.723Z,45.65
2023-04-15T03:31:26.694Z,47.60
2023-04-15T03:33:54.423Z,45.08
2023-04-15T03:36:22.089Z,45.80
2023-04-15T03:38:50.329Z,51.80
2023-04-15T03:41:19.345Z,44.50
2023-04-15T03:43:47.097Z,54.50
2023-04-15T03:46:14.904Z,56.90
2023-04-15T03:48:42.592Z,51.45
2023-04-15T03:51:10.225Z,57.35
2023-04-15T03:53:38.367Z,50.83
2023-04-15T03:56:06.598Z,57.17
2023-04-15T03:58:35.834Z,56.05
2023-04-15T04:01:03.546Z,50.10
2023-04-15T04:03:31.878Z,57.17
2023-04-15T04:06:00.055Z,57.10
2023-04-15T04:08:27.738Z,55.65
2023-04-15T04:10:55.423Z,62.63
2023-04-15T04:13:23.108Z,65.97
2023-04-15T04:15:52.446Z,73.47
2023-04-15T04:18:20.345Z,57.22
2023-04-15T04:20:47.962Z,58.53
2023-04-15T04:23:15.801Z,58.80
2023-04-15T04:25:43.549Z,64.63
2023-04-15T04:28:11.580Z,57.63
2023-04-15T04:30:39.258Z,59.88
2023-04-15T04:33:08.330Z,55.45
2023-04-15T04:35:37.778Z,61.20
2023-04-15T04:38:05.928Z,62.85
2023-04-15T04:40:33.647Z,63.17
2023-04-15T04:43:02.580Z,65.53
2023-04-15T04:45:30.672Z,68.93
2023-04-15T04:47:58.489Z,74.10
2023-04-15T04:50:27.721Z,71.28
2023-04-15T04:52:55.581Z,60.60
2023-04-15T04:55:24.075Z,65.80
2023-04-15T04:57:51.872Z,71.13
2023-04-15T05:00:20.359Z,66.40
2023-04-15T05:02:48.803Z,59.80
2023-04-15T05:05:16.716Z,62.70
2023-04-15T05:07:46.076Z,62.65
2023-04-15T05:10:15.238Z,61.55
2023-04-15T05:12:43.530Z,65.72
2023-04-15T05:15:12.078Z,66.38
2023-04-15T05:17:39.813Z,65.72
2023-04-15T05:20:09.688Z,67.57
2023-04-15T05:22:37.978Z,70.03
2023-04-15T05:25:07.776Z,73.18
2023-04-15T05:27:35.518Z,78.20
2023-04-15T05:30:03.280Z,72.03
2023-04-15T05:32:31.201Z,76.43
2023-04-15T05:34:59.317Z,80.13
2023-04-15T05:37:27.110Z,76.05
2023-04-15T05:39:54.842Z,83.72
2023-04-15T05:42:24.040Z,82.82
2023-04-15T05:44:51.874Z,79.50
2023-04-15T05:47:19.969Z,82.05
2023-04-15T05:49:47.713Z,82.07
2023-04-15T05:52:15.423Z,83.68
2023-04-15T05:54:43.340Z,88.95
2023-04-15T05:57:10.949Z,87.07
2023-04-15T05:59:42.018Z,87.95
2023-04-15T06:02:10.896Z,91.85
2023-04-15T06:04:39.371Z,90.00
2023-04-15T06:07:07.285Z,82.82
2023-04-15T06:09:35.196Z,94.28
2023-04-15T06:12:02.998Z,104.28
2023-04-15T06:14:30.772Z,92.63
2023-04-15T06:16:59.969Z,91.45
2023-04-15T06:19:28.013Z,92.35
2023-04-15T06:21:55.662Z,98.85
2023-04-15T06:24:23.481Z,91.95
2023-04-15T06:26:51.211Z,105.00
2023-04-15T06:29:18.852Z,106.65
2023-04-15T06:31:48.417Z,101.35
2023-04-15T06:34:17.554Z,109.70
2023-04-15T06:36:45.466Z,94.53
2023-04-15T06:39:13.937Z,101.22
2023-04-15T06:41:41.686Z,106.90
2023-04-15T06:44:09.799Z,110.45
2023-04-15T06:46:38.034Z,101.90
2023-04-15T06:49:05.875Z,95.82
2023-04-15T06:51:36.067Z,94.95
2023-04-15T06:54:05.857Z,105.35
2023-04-15T06:56:33.503Z,103.93
2023-04-15T06:59:02.012Z,104.38
2023-04-15T07:01:30.013Z,105.35
2023-04-15T07:03:58.257Z,100.07
2023-04-15T07:06:25.903Z,109.60
2023-04-15T07:08:55.657Z,103.80
2023-04-15T07:11:23.881Z,104.20
2023-04-15T07:13:51.841Z,105.20
2023-04-15T07:16:19.741Z,101.38
2023-04-15T07:18:47.412Z,117.90
2023-04-15T07:21:15.123Z,92.13
2023-04-15T07:23:43.246Z,111.97
2023-04-15T07:26:12.304Z,109.38
2023-04-15T07:28:40.410Z,113.10
2023-04-15T07:31:08.601Z,113.53
2023-04-15T07:33:36.986Z,111.65
2023-04-15T07:36:04.879Z,112.25
2023-04-15T07:38:32.849Z,120.05
2023-04-15T07:41:00.584Z,121.68
2023-04-15T07:43:29.900Z,119.03
2023-04-15T07:45:57.750Z,126.68
2023-04-15T07:48:25.661Z,121.18
2023-04-15T07:50:53.474Z,145.13
2023-04-15T07:53:21.761Z,118.40
2023-04-15T07:55:49.488Z,135.98
2023-04-15T07:58:17.259Z,111.45
2023-04-15T08:00:46.640Z,120.68
2023-04-15T08:03:15.704Z,126.95
2023-04-15T08:05:43.556Z,126.90
2023-04-15T08:08:11.433Z,116.57
2023-04-15T08:10:39.101Z,129.57
2023-04-15T08:13:07.752Z,127.38
2023-04-15T08:15:35.443Z,131.52
2023-04-15T08:18:04.961Z,131.07
2023-04-15T08:20:32.668Z,126.07
2023-04-15T08:23:00.414Z,121.00
2023-04-15T08:25:28.477Z,127.43
2023-04-15T08:27:57.058Z,124.18
2023-04-15T08:30:25.162Z,123.07
2023-04-15T08:32:52.900Z,124.90
2023-04-15T08:35:22.155Z,119.75
2023-04-15T08:37:50.538Z,112.57
2023-04-15T08:40:18.301Z,114.13
2023-04-15T08:42:49.154Z,114.65
2023-04-15T08:45:18.237Z,97.68
2023-04-15T08:47:46.858Z,113.13
2023-04-15T08:50:15.901Z,112.68
2023-04-15T08:52:45.051Z,117.38
2023-04-15T08:55:14.167Z,118.10
2023-04-15T08:57:41.797Z,112.45
2023-04-15T09:00:11.104Z,117.65
2023-04-15T09:02:39.486Z,109.20
2023-04-15T09:05:08.595Z,110.10
2023-04-15T09:07:36.701Z,112.35
2023-04-15T09:10:06.477Z,106.82
2023-04-15T09:12:35.928Z,108.03
2023-04-15T09:15:03.733Z,100.93
2023-04-15T09:17:34.240Z,104.72
2023-04-15T09:20:13.138Z,98.85
2023-04-15T09:22:41.472Z,93.47
2023-04-15T09:25:29.595Z,83.53
2023-04-15T09:27:58.989Z,82.15
2023-04-15T09:30:27.199Z,76.30
2023-04-15T09:32:56.945Z,64.40
2023-04-15T09:35:25.606Z,63.13
2023-04-15T09:37:53.952Z,58.45
2023-04-15T09:40:37.108Z,52.53
2023-04-15T09:43:06.240Z,57.00
2023-04-15T09:45:35.603Z,49.25
2023-04-15T09:48:17.117Z,50.25
2023-04-15T09:50:45.310Z,44.28
2023-04-15T09:53:17.778Z,42.83
2023-04-15T09:55:50.793Z,37.00
2023-04-15T09:58:22.926Z,38.92
2023-04-15T10:00:52.620Z,34.10
2023-04-15T10:03:22.647Z,32.85
2023-04-15T10:05:52.320Z,31.05
2023-04-15T10:08:21.700Z,30.45
2023-04-15T10:10:51.831Z,26.48
2023-04-15T10:13:22.225Z,28.73
2023-04-15T10:15:52.073Z,30.45
2023-04-15T10:18:21.569Z,26.15
2023-04-15T10:20:49.738Z,21.73
2023-04-15T10:23:18.765Z,24.52
2023-04-15T10:25:47.096Z,24.95
2023-04-15T10:28:17.363Z,24.15
2023-04-15T10:30:45.298Z,25.00
2023-04-15T10:33:13.657Z,22.85
2023-04-15T10:35:44.270Z,24.25
2023-04-15T10:38:34.638Z,20.73
2023-04-15T10:41:15.462Z,19.95
2023-04-15T10:43:52.807Z,17.98
2023-04-15T10:46:23.662Z,17.42
2023-04-15T10:48:52.783Z,18.48
2023-04-15T10:51:31.783Z,19.85
2023-04-15T10:54:00.857Z,17.13
2023-04-15T10:56:30.000Z,16.50
2023-04-15T10:59:02.293Z,18.20
2023-04-15T11:01:53.249Z,19.50
2023-04-15T11:04:52.585Z,16.65
2023-04-15T11:07:41.048Z,17.15
2023-04-15T11:10:58.934Z,17.05
2023-04-15T11:13:29.434Z,15.30
2023-04-15T11:16:02.117Z,13.77
2023-04-15T11:18:31.849Z,12.65
2023-04-15T11:21:01.580Z,13.25
2023-04-15T11:23:32.118Z,11.55
2023-04-15T11:26:00.686Z,11.35
2023-04-15T11:28:29.472Z,11.07
2023-04-15T11:30:58.830Z,12.15
2023-04-15T11:33:27.150Z,12.48
2023-04-15T11:35:55.269Z,11.50
2023-04-15T11:38:23.360Z,12.23
2023-04-15T11:40:52.576Z,10.48
2023-04-15T11:43:21.757Z,11.38
2023-04-15T11:45:52.594Z,11.20
2023-04-15T11:48:23.429Z,12.85
2023-04-15T11:50:55.344Z,12.65
2023-04-15T11:53:24.122Z,11.63
2023-04-15T11:55:53.150Z,12.07
2023-04-15T11:58:22.935Z,11.50
2023-04-15T12:00:53.424Z,10.93
2023-04-15T12:03:25.018Z,11.32
2023-04-15T12:06:20.253Z,10.18
2023-04-15T12:08:52.585Z,10.68
2023-04-15T12:11:20.547Z,10.13
2023-04-15T12:13:49.198Z,10.38
2023-04-15T12:16:18.772Z,10.68
2023-04-15T12:18:48.896Z,11.00
2023-04-15T12:21:16.860Z,10.77
2023-04-15T12:23:50.625Z,11.07
2023-04-15T12:26:19.125Z,10.77
2023-04-15T12:28:46.763Z,10.80
2023-04-15T12:31:15.899Z,11.30
2023-04-15T12:33:44.288Z,13.55
2023-04-15T12:36:13.381Z,11.27
2023-04-15T12:38:41.256Z,12.82
2023-04-15T12:41:08.902Z,12.30
2023-04-15T12:43:37.039Z,12.32
2023-04-15T12:46:04.870Z,12.52
2023-04-15T12:48:33.129Z,12.50
2023-04-15T12:51:01.572Z,12.73
2023-04-15T12:53:31.095Z,13.35
2023-04-15T12:55:58.766Z,13.02
2023-04-15T12:58:27.453Z,11.35
2023-04-15T13:00:55.181Z,12.40
2023-04-15T13:03:22.969Z,12.70
2023-04-15T13:05:51.324Z,12.38
2023-04-15T13:08:19.660Z,12.18
2023-04-15T13:10:49.000Z,11.85
2023-04-15T13:13:16.785Z,12.25
2023-04-15T13:15:45.886Z,12.43
2023-04-15T13:18:13.896Z,11.65
2023-04-15T13:20:41.899Z,11.27
2023-04-15T13:23:10.665Z,11.38
2023-04-15T13:25:38.800Z,11.32
2023-04-15T13:28:07.908Z,11.55
2023-04-15T13:30:35.851Z,10.88
2023-04-15T13:33:03.702Z,11.00
2023-04-15T13:35:32.896Z,11.88
2023-04-15T13:38:00.772Z,10.43
2023-04-15T13:40:28.600Z,11.10
2023-04-15T13:42:57.615Z,11.98
2023-04-15T13:45:26.751Z,12.23
2023-04-15T13:47:54.834Z,11.68
2023-04-15T13:50:22.784Z,10.80
2023-04-15T13:52:50.589Z,10.85
2023-04-15T13:55:20.748Z,11.15
2023-04-15T13:57:50.318Z,11.40
2023-04-15T14:00:18.246Z,11.80
2023-04-15T14:02:47.440Z,10.82
2023-04-15T14:05:15.362Z,12.05
2023-04-15T14:07:43.017Z,10.18
2023-04-15T14:10:10.673Z,11.63
2023-04-15T14:12:38.369Z,10.75
2023-04-15T14:15:07.462Z,10.32
2023-04-15T14:17:35.398Z,10.10
2023-04-15T14:20:05.257Z,9.80
2023-04-15T14:22:32.925Z,10.32
2023-04-15T14:25:00.672Z,10.30
2023-04-15T14:27:29.635Z,11.27
2023-04-15T14:29:57.728Z,11.00
2023-04-15T14:32:26.144Z,11.10
2023-04-15T14:34:53.907Z,9.80
2023-04-15T14:37:22.972Z,9.20
2023-04-15T14:39:50.790Z,10.00
2023-04-15T14:42:18.825Z,10.70
2023-04-15T14:44:46.503Z,13.18
2023-04-15T14:47:14.529Z,14.07
2023-04-15T14:49:42.304Z,15.20
2023-04-15T14:52:10.183Z,14.48
2023-04-15T14:54:39.609Z,14.88
2023-04-15T14:57:08.677Z,14.40
2023-04-15T14:59:36.391Z,14.38
2023-04-15T15:02:04.323Z,13.80
2023-04-15T15:04:33.334Z,14.35
2023-04-15T15:07:01.218Z,15.43
2023-04-15T15:09:29.074Z,15.05
2023-04-15T15:11:58.921Z,16.15
2023-04-15T15:14:27.545Z,14.50
2023-04-15T15:16:55.292Z,14.25
2023-04-15T15:19:24.109Z,15.82
2023-04-15T15:21:51.969Z,16.60
2023-04-15T15:24:19.686Z,16.33
2023-04-15T15:26:47.400Z,14.68
2023-04-15T15:29:16.620Z,15.70
2023-04-15T15:31:44.679Z,21.10
2023-04-15T15:34:12.563Z,15.95
2023-04-15T15:36:40.287Z,15.88
2023-04-15T15:39:08.076Z,15.32
2023-04-15T15:41:36.522Z,15.07
2023-04-15T15:44:04.333Z,14.48
2023-04-15T15:46:33.440Z,14.50
2023-04-15T15:49:03.564Z,15.30
2023-04-15T15:51:31.942Z,16.27
2023-04-15T15:53:59.975Z,14.75
2023-04-15T15:56:27.912Z,13.57
2023-04-15T15:58:55.593Z,13.70
2023-04-15T16:01:23.513Z,13.60
2023-04-15T16:03:53.236Z,13.35
2023-04-15T16:06:21.108Z,14.10
2023-04-15T16:08:48.790Z,17.73
2023-04-15T16:11:16.449Z,16.70
2023-04-15T16:13:44.364Z,17.48
2023-04-15T16:16:12.378Z,15.82
2023-04-15T16:18:40.093Z,16.58
2023-04-15T16:21:09.635Z,14.52
2023-04-15T16:23:37.505Z,15.10
2023-04-15T16:26:05.378Z,13.38
2023-04-15T16:28:33.193Z,16.02
2023-04-15T16:31:01.273Z,14.48
2023-04-15T16:33:28.928Z,14.85
2023-04-15T16:35:56.605Z,15.93
2023-04-15T16:38:25.634Z,15.98
2023-04-15T16:40:53.289Z,16.10
2023-04-15T16:43:21.544Z,18.63
2023-04-15T16:45:50.947Z,15.45
2023-04-15T16:48:20.529Z,17.83
2023-04-15T16:50:48.248Z,16.55
2023-04-15T16:53:16.308Z,15.90
2023-04-15T16:55:45.352Z,16.60
2023-04-15T16:58:13.040Z,16.10
2023-04-15T17:00:40.788Z,15.82
2023-04-15T17:03:09.385Z,16.35
2023-04-15T17:05:37.251Z,15.55
2023-04-15T17:08:05.799Z,18.27
2023-04-15T17:10:33.605Z,14.82
2023-04-15T17:13:02.702Z,18.38
2023-04-15T17:15:31.128Z,15.73
2023-04-15T17:18:15.845Z,16.38
2023-04-15T17:20:45.280Z,14.95
2023-04-15T17:23:13.267Z,16.95
2023-04-15T17:25:41.038Z,18.13
2023-04-15T17:28:10.458Z,16.80
2023-04-15T17:30:38.898Z,17.70
2023-04-15T17:33:58.000Z,16.85
2023-04-15T17:36:35.053Z,16.23
2023-04-15T17:39:23.138Z,17.33
2023-04-15T17:42:11.223Z,18.77
2023-04-15T17:45:00.292Z,16.10
2023-04-15T17:47:48.992Z,19.83
2023-04-15T17:50:38.405Z,20.15
2023-04-15T17:53:26.062Z,17.23
2023-04-15T17:56:14.417Z,17.55
2023-04-15T17:59:02.392Z,19.70
2023-04-15T18:01:51.593Z,18.13
2023-04-15T18:04:39.551Z,18.13
2023-04-15T18:07:27.549Z,16.75
2023-04-15T18:10:15.444Z,18.92
2023-04-15T18:13:03.468Z,19.00
2023-04-15T18:15:51.706Z,19.15
2023-04-15T18:18:40.855Z,22.20
2023-04-15T18:21:08.515Z,21.40
2023-04-15T18:23:36.287Z,19.48
2023-04-15T18:26:03.960Z,21.60
2023-04-15T18:28:31.727Z,24.42
2023-04-15T18:31:01.395Z,18.20
2023-04-15T18:33:29.067Z,18.52
2023-04-15T18:35:58.548Z,18.02
2023-04-15T18:38:26.217Z,18.65
2023-04-15T18:40:53.897Z,19.98
2023-04-15T18:43:21.590Z,19.60
2023-04-15T18:45:49.450Z,19.80
2023-04-15T18:48:17.774Z,20.17
2023-04-15T18:50:45.498Z,19.90
2023-04-15T18:53:15.319Z,20.92
2023-04-15T18:55:43.570Z,17.60
2023-04-15T18:58:11.471Z,17.13
2023-04-15T19:00:41.558Z,20.45
2023-04-15T19:03:09.371Z,21.33
2023-04-15T19:05:37.407Z,18.98
2023-04-15T19:08:05.374Z,17.23
2023-04-15T19:10:35.049Z,19.95
2023-04-15T19:13:04.317Z,19.65
2023-04-15T19:15:32.368Z,17.33
2023-04-15T19:18:00.110Z,19.40
2023-04-15T19:20:27.778Z,16.35
2023-04-15T19:22:55.562Z,19.45
2023-04-15T19:25:23.561Z,23.15
2023-04-15T19:27:52.517Z,16.77
2023-04-15T19:30:21.254Z,17.42
2023-04-15T19:32:49.331Z,16.55
2023-04-15T19:35:17.600Z,15.85
2023-04-15T19:37:45.255Z,18.20
2023-04-15T19:40:14.293Z,19.00
2023-04-15T19:42:42.000Z,20.98
2023-04-15T19:45:11.872Z,19.80
2023-04-15T19:47:40.251Z,17.63
2023-04-15T19:50:09.891Z,20.02
2023-04-15T19:52:38.256Z,19.20
2023-04-15T19:55:06.405Z,19.80
2023-04-15T19:57:34.082Z,19.75
2023-04-15T20:00:01.795Z,16.20
2023-04-15T20:02:34.937Z,17.65
2023-04-15T20:05:02.696Z,15.20
2023-04-15T20:07:30.511Z,19.65
2023-04-15T20:09:58.855Z,18.60
2023-04-15T20:12:50.243Z,18.02
2023-04-15T20:15:14.671Z,17.73
2023-04-15T20:17:43.891Z,21.13
2023-04-15T20:20:12.076Z,15.48
2023-04-15T20:22:40.136Z,18.25
2023-04-15T20:25:08.869Z,17.98
2023-04-15T20:27:36.584Z,20.85
2023-04-15T20:30:05.147Z,17.83
2023-04-15T20:32:35.198Z,19.02
2023-04-15T20:35:05.885Z,18.58
2023-04-15T20:37:34.228Z,21.00
2023-04-15T20:40:02.935Z,19.38
2023-04-15T20:42:33.452Z,16.17
2023-04-15T20:45:01.299Z,19.60
2023-04-15T20:47:29.369Z,19.65
2023-04-15T20:49:57.417Z,18.90
2023-04-15T20:52:26.899Z,19.45
2023-04-15T20:54:54.596Z,18.10
2023-04-15T20:57:24.445Z,19.65
2023-04-15T20:59:52.201Z,20.05
2023-04-15T21:02:19.946Z,18.20
2023-04-15T21:04:48.013Z,17.73
2023-04-15T21:07:15.759Z,18.92
2023-04-15T21:09:44.815Z,21.63
2023-04-15T21:12:12.753Z,18.95
2023-04-15T21:14:40.921Z,20.00
2023-04-15T21:17:11.189Z,19.27
2023-04-15T21:19:40.318Z,21.30
2023-04-15T21:22:08.416Z,19.20
2023-04-15T21:24:36.140Z,20.55
2023-04-15T21:27:05.802Z,21.08
2023-04-15T21:29:33.473Z,19.55
2023-04-15T21:32:01.673Z,27.20
2023-04-15T21:34:29.943Z,21.15
2023-04-15T21:36:57.595Z,18.33
2023-04-15T21:39:25.312Z,19.42
2023-04-15T21:41:53.308Z,20.75
2023-04-15T21:44:22.354Z,25.48
2023-04-15T21:46:50.071Z,20.65
2023-04-15T21:49:17.953Z,19.90
2023-04-15T21:51:46.281Z,19.98
2023-04-15T21:54:14.183Z,22.23
2023-04-15T21:56:42.281Z,21.60
2023-04-15T21:59:10.032Z,18.88
2023-04-15T22:01:39.089Z,20.42
2023-04-15T22:04:07.504Z,21.42
2023-04-15T22:06:35.445Z,23.05
2023-04-15T22:09:03.612Z,20.70
2023-04-15T22:11:32.240Z,22.67
2023-04-15T22:14:00.212Z,20.80
2023-04-15T22:16:28.552Z,19.13
2023-04-15T22:18:57.687Z,19.15
2023-04-15T22:21:25.391Z,19.38
2023-04-15T22:24:37.286Z,23.20
2023-04-15T22:26:43.228Z,23.85
2023-04-15T22:29:11.173Z,23.23
2023-04-15T22:31:39.523Z,22.10
2023-04-15T22:34:08.621Z,24.95
2023-04-15T22:36:36.300Z,19.70
2023-04-15T22:39:04.333Z,19.85
2023-04-15T22:41:32.174Z,22.70
2023-04-15T22:43:59.840Z,21.00
2023-04-15T22:46:27.516Z,22.23
2023-04-15T22:48:55.464Z,21.42
2023-04-15T22:51:26.864Z,19.50
2023-04-15T22:53:54.995Z,29.67
2023-04-15T22:56:23.417Z,21.90
2023-04-15T22:58:51.762Z,20.85
2023-04-15T23:01:20.786Z,23.73
2023-04-15T23:03:56.501Z,24.35
2023-04-15T23:06:34.065Z,21.75
2023-04-15T23:09:02.699Z,23.17
2023-04-15T23:11:30.463Z,21.88
2023-04-15T23:13:58.840Z,23.48
2023-04-15T23:16:26.683Z,25.25
2023-04-15T23:18:54.764Z,27.23
2023-04-15T23:21:25.442Z,20.15
2023-04-15T23:23:55.302Z,21.27
2023-04-15T23:26:23.657Z,23.23
2023-04-15T23:28:52.023Z,20.65
2023-04-15T23:31:19.731Z,25.90
2023-04-15T23:33:47.395Z,25.23
2023-04-15T23:36:15.145Z,28.25
2023-04-15T23:38:43.204Z,26.27
2023-04-15T23:41:12.333Z,23.95
2023-04-15T23:43:40.001Z,26.15
2023-04-15T23:46:08.376Z,26.20
2023-04-15T23:48:36.044Z,26.60
2023-04-15T23:51:03.877Z,25.50
2023-04-15T23:53:31.812Z,26.45
2023-04-15T23:55:59.780Z,27.98
2023-04-15T23:58:29.208Z,25.38
